createdAt,value
2018-11-06T00:00:29.517Z,7.87
2018-11-06T00:01:29.529Z,7.80
2018-11-06T00:02:29.543Z,7.79
2018-11-06T00:03:29.557Z,7.80
2018-11-06T00:04:29.569Z,7.83
2018-11-06T00:05:29.582Z,7.80
2018-11-06T00:06:29.595Z,7.80
2018-11-06T00:07:29.608Z,7.80
2018-11-06T00:08:29.624Z,7.80
2018-11-06T00:09:29.638Z,7.77
2018-11-06T00:10:29.648Z,7.80
2018-11-06T00:11:29.663Z,7.74
2018-11-06T00:12:29.674Z,7.77
2018-11-06T00:13:29.696Z,7.82
2018-11-06T00:14:29.701Z,7.82
2018-11-06T00:15:29.713Z,7.80
2018-11-06T00:16:29.728Z,7.77
2018-11-06T00:17:29.739Z,7.83
2018-11-06T00:18:29.756Z,7.82
2018-11-06T00:19:29.765Z,7.80
2018-11-06T00:20:29.780Z,7.82
2018-11-06T00:21:29.792Z,7.80
2018-11-06T00:22:29.805Z,7.82
2018-11-06T00:23:29.820Z,7.83
2018-11-06T00:24:29.832Z,7.80
2018-11-06T00:25:29.847Z,7.77
2018-11-06T00:26:29.860Z,7.80
2018-11-06T00:27:29.871Z,7.74
2018-11-06T00:28:29.886Z,7.72
2018-11-06T00:29:29.903Z,7.75
2018-11-06T00:30:29.915Z,7.82
2018-11-06T00:31:29.927Z,7.72
2018-11-06T00:32:29.940Z,7.77
2018-11-06T00:33:29.951Z,7.75
2018-11-06T00:34:29.966Z,7.82
2018-11-06T00:35:29.984Z,7.79
2018-11-06T00:36:29.996Z,7.72
2018-11-06T00:37:30.003Z,7.80
2018-11-06T00:38:30.016Z,7.72
2018-11-06T00:39:30.029Z,7.77
2018-11-06T00:40:30.043Z,7.83
2018-11-06T00:41:30.058Z,7.75
2018-11-06T00:42:30.068Z,7.82
2018-11-06T00:43:30.085Z,7.67
2018-11-06T00:44:30.092Z,7.69
2018-11-06T00:45:30.109Z,7.77
2018-11-06T00:46:30.122Z,7.77
2018-11-06T00:47:30.132Z,7.72
2018-11-06T00:48:30.144Z,7.72
2018-11-06T00:49:30.158Z,7.77
2018-11-06T00:50:30.174Z,7.79
2018-11-06T00:51:30.186Z,7.72
2018-11-06T00:52:30.199Z,7.68
2018-11-06T00:53:30.212Z,7.69
2018-11-06T00:54:30.237Z,7.79
2018-11-06T00:55:30.236Z,7.72
2018-11-06T00:56:30.250Z,7.83
2018-11-06T00:57:30.263Z,7.79
2018-11-06T00:58:30.275Z,7.75
2018-11-06T00:59:30.288Z,7.74
2018-11-06T01:00:30.305Z,7.83
2018-11-06T01:01:30.315Z,7.71
2018-11-06T01:02:30.326Z,7.67
2018-11-06T01:03:30.342Z,7.72
2018-11-06T01:04:30.353Z,7.69
2018-11-06T01:05:30.367Z,7.71
2018-11-06T01:06:30.379Z,7.74
2018-11-06T01:07:30.391Z,7.72
2018-11-06T01:08:30.414Z,7.79
2018-11-06T01:09:30.417Z,7.68
2018-11-06T01:10:30.431Z,7.77
2018-11-06T01:11:30.441Z,7.69
2018-11-06T01:12:30.456Z,7.71
2018-11-06T01:13:30.470Z,7.82
2018-11-06T01:14:30.484Z,7.80
2018-11-06T01:15:30.494Z,7.79
2018-11-06T01:16:30.505Z,7.83
2018-11-06T01:17:30.518Z,7.87
2018-11-06T01:18:30.533Z,7.79
2018-11-06T01:19:30.545Z,7.77
2018-11-06T01:20:30.559Z,7.72
2018-11-06T01:21:30.571Z,7.77
2018-11-06T01:22:30.586Z,7.75
2018-11-06T01:23:30.598Z,7.64
2018-11-06T01:24:30.609Z,7.63
2018-11-06T01:25:30.622Z,7.63
2018-11-06T01:26:30.635Z,7.57
2018-11-06T01:27:30.648Z,7.69
2018-11-06T01:28:30.664Z,7.72
2018-11-06T01:29:30.675Z,7.72
2018-11-06T01:30:30.687Z,7.74
2018-11-06T01:31:30.704Z,7.82
2018-11-06T01:32:30.711Z,7.80
2018-11-06T01:33:30.728Z,7.90
2018-11-06T01:34:30.739Z,7.90
2018-11-06T01:35:30.749Z,8.00
2018-11-06T01:36:30.764Z,8.01
2018-11-06T01:37:30.774Z,8.04
2018-11-06T01:38:30.789Z,7.97
2018-11-06T01:39:30.801Z,7.98
2018-11-06T01:40:30.812Z,8.00
2018-11-06T01:41:30.826Z,8.00
2018-11-06T01:42:30.839Z,8.04
2018-11-06T01:43:30.851Z,8.00
2018-11-06T01:44:30.863Z,8.00
2018-11-06T01:45:30.878Z,7.95
2018-11-06T01:46:30.894Z,7.95
2018-11-06T01:47:30.906Z,7.90
2018-11-06T01:48:30.917Z,7.83
2018-11-06T01:49:30.932Z,7.80
2018-11-06T01:50:30.943Z,7.86
2018-11-06T01:51:30.955Z,7.85
2018-11-06T01:52:30.968Z,7.77
2018-11-06T01:53:30.981Z,7.80
2018-11-06T01:54:30.992Z,7.77
2018-11-06T01:55:31.007Z,7.83
2018-11-06T01:56:31.022Z,7.90
2018-11-06T01:57:31.039Z,7.90
2018-11-06T01:58:31.046Z,7.80
2018-11-06T01:59:31.060Z,7.83
2018-11-06T02:00:31.071Z,7.86
2018-11-06T02:01:31.081Z,7.86
2018-11-06T02:02:31.094Z,7.82
2018-11-06T02:03:31.107Z,7.87
2018-11-06T02:04:31.120Z,7.89
2018-11-06T02:05:31.134Z,7.95
2018-11-06T02:06:31.147Z,8.01
2018-11-06T02:07:31.160Z,7.93
2018-11-06T02:08:31.171Z,8.00
2018-11-06T02:09:31.185Z,8.04
2018-11-06T02:10:31.199Z,7.98
2018-11-06T02:11:31.215Z,7.92
2018-11-06T02:12:31.222Z,7.90
2018-11-06T02:13:31.237Z,7.86
2018-11-06T02:14:31.250Z,7.87
2018-11-06T02:15:31.266Z,7.90
2018-11-06T02:16:31.278Z,7.82
2018-11-06T02:17:31.291Z,7.85
2018-11-06T02:18:31.303Z,7.85
2018-11-06T02:19:31.317Z,7.83
2018-11-06T02:20:31.327Z,7.83
2018-11-06T02:21:31.341Z,7.75
2018-11-06T02:22:31.353Z,7.75
2018-11-06T02:23:31.366Z,7.80
2018-11-06T02:24:31.378Z,7.82
2018-11-06T02:25:31.393Z,7.86
2018-11-06T02:26:31.404Z,7.89
2018-11-06T02:27:31.421Z,7.92
2018-11-06T02:28:31.431Z,7.93
2018-11-06T02:29:31.443Z,7.92
2018-11-06T02:30:31.458Z,7.95
2018-11-06T02:31:31.469Z,7.98
2018-11-06T02:32:31.517Z,7.95
2018-11-06T02:33:31.497Z,8.00
2018-11-06T02:34:31.511Z,7.97
2018-11-06T02:35:31.522Z,8.01
2018-11-06T02:36:31.543Z,8.00
2018-11-06T02:37:31.550Z,7.92
2018-11-06T02:38:31.564Z,7.89
2018-11-06T02:39:31.574Z,7.95
2018-11-06T02:40:31.588Z,8.05
2018-11-06T02:41:31.600Z,7.97
2018-11-06T02:42:31.612Z,7.95
2018-11-06T02:43:31.631Z,7.98
2018-11-06T02:44:31.641Z,8.02
2018-11-06T02:45:31.651Z,7.98
2018-11-06T02:46:31.665Z,8.00
2018-11-06T02:47:31.675Z,7.98
2018-11-06T02:48:31.690Z,7.95
2018-11-06T02:49:31.702Z,8.00
2018-11-06T02:50:31.716Z,7.95
2018-11-06T02:51:31.727Z,8.00
2018-11-06T02:52:31.746Z,7.98
2018-11-06T02:53:31.753Z,7.98
2018-11-06T02:54:31.768Z,7.98
2018-11-06T02:55:31.778Z,7.98
2018-11-06T02:56:31.792Z,7.92
2018-11-06T02:57:31.804Z,7.93
2018-11-06T02:58:31.818Z,8.00
2018-11-06T02:59:31.828Z,7.95
2018-11-06T03:00:31.849Z,8.00
2018-11-06T03:01:31.854Z,7.97
2018-11-06T03:02:31.868Z,7.98
2018-11-06T03:03:31.880Z,8.00
2018-11-06T03:04:31.897Z,7.98
2018-11-06T03:05:31.910Z,8.02
2018-11-06T03:06:31.922Z,8.00
2018-11-06T03:07:31.933Z,8.02
2018-11-06T03:08:31.947Z,8.02
2018-11-06T03:09:31.955Z,8.18
2018-11-06T03:10:32.109Z,8.10
2018-11-06T03:11:31.985Z,8.11
2018-11-06T03:12:31.997Z,8.19
2018-11-06T03:13:32.008Z,8.19
2018-11-06T03:14:32.021Z,8.29
2018-11-06T03:15:32.036Z,8.26
2018-11-06T03:16:32.053Z,8.45
2018-11-06T03:17:32.061Z,8.43
2018-11-06T03:18:32.076Z,8.41
2018-11-06T03:19:32.090Z,8.40
2018-11-06T03:20:32.098Z,8.36
2018-11-06T03:21:32.112Z,8.37
2018-11-06T03:22:32.124Z,8.41
2018-11-06T03:23:32.142Z,8.48
2018-11-06T03:24:32.151Z,8.44
2018-11-06T03:25:32.164Z,8.50
2018-11-06T03:26:32.175Z,8.47
2018-11-06T03:27:32.185Z,8.40
2018-11-06T03:28:32.202Z,8.40
2018-11-06T03:29:32.216Z,8.50
2018-11-06T03:30:32.227Z,8.55
2018-11-06T03:31:32.238Z,8.59
2018-11-06T03:32:32.252Z,8.59
2018-11-06T03:33:32.267Z,8.62
2018-11-06T03:34:32.279Z,8.84
2018-11-06T03:35:32.293Z,8.99
2018-11-06T03:36:32.304Z,9.31
2018-11-06T03:37:32.316Z,9.61
2018-11-06T03:38:32.327Z,9.74
2018-11-06T03:39:32.338Z,9.90
2018-11-06T03:40:32.352Z,10.05
2018-11-06T03:41:32.367Z,10.18
2018-11-06T03:42:32.375Z,10.20
2018-11-06T03:43:32.389Z,10.20
2018-11-06T03:44:32.404Z,10.17
2018-11-06T03:45:32.418Z,10.12
2018-11-06T03:46:32.428Z,9.96
2018-11-06T03:47:32.438Z,9.71
2018-11-06T03:48:32.453Z,9.61
2018-11-06T03:49:32.466Z,9.76
2018-11-06T03:50:32.478Z,9.79
2018-11-06T03:51:32.493Z,9.84
2018-11-06T03:52:32.507Z,9.90
2018-11-06T03:53:32.520Z,9.87
2018-11-06T03:54:32.530Z,9.99
2018-11-06T03:55:32.548Z,10.07
2018-11-06T03:56:32.556Z,10.09
2018-11-06T03:57:32.568Z,10.20
2018-11-06T03:58:32.583Z,10.29
2018-11-06T03:59:32.593Z,10.15
2018-11-06T04:00:32.612Z,10.26
2018-11-06T04:01:32.621Z,10.32
2018-11-06T04:02:32.634Z,10.27
2018-11-06T04:03:32.648Z,10.23
2018-11-06T04:04:32.661Z,10.18
2018-11-06T04:05:32.674Z,10.12
2018-11-06T04:06:32.689Z,9.96
2018-11-06T04:07:32.701Z,9.89
2018-11-06T04:08:32.712Z,9.78
2018-11-06T04:09:32.726Z,9.75
2018-11-06T04:10:32.741Z,9.64
2018-11-06T04:11:32.752Z,9.69
2018-11-06T04:12:32.766Z,9.47
2018-11-06T04:13:32.783Z,9.33
2018-11-06T04:14:32.792Z,9.32
2018-11-06T04:15:32.803Z,9.47
2018-11-06T04:16:32.817Z,9.48
2018-11-06T04:17:32.831Z,9.48
2018-11-06T04:18:32.844Z,9.60
2018-11-06T04:19:32.860Z,9.50
2018-11-06T04:20:32.871Z,9.51
2018-11-06T04:21:32.882Z,9.50
2018-11-06T04:22:32.896Z,9.48
2018-11-06T04:23:32.911Z,9.54
2018-11-06T04:24:32.922Z,9.66
2018-11-06T04:25:32.935Z,9.71
2018-11-06T04:26:32.946Z,9.71
2018-11-06T04:27:32.962Z,9.72
2018-11-06T04:28:32.976Z,9.69
2018-11-06T04:29:32.991Z,9.72
2018-11-06T04:30:33.001Z,9.74
2018-11-06T04:31:33.018Z,10.02
2018-11-06T04:32:33.024Z,10.12
2018-11-06T04:33:33.038Z,10.23
2018-11-06T04:34:33.055Z,10.11
2018-11-06T04:35:33.062Z,10.17
2018-11-06T04:36:33.076Z,9.91
2018-11-06T04:37:33.089Z,9.78
2018-11-06T04:38:33.103Z,9.53
2018-11-06T04:39:33.115Z,9.36
2018-11-06T04:40:33.131Z,9.29
2018-11-06T04:41:33.142Z,9.14
2018-11-06T04:42:33.155Z,8.98
2018-11-06T04:43:33.168Z,8.94
2018-11-06T04:44:33.181Z,9.10
2018-11-06T04:45:33.195Z,9.11
2018-11-06T04:46:33.208Z,9.17
2018-11-06T04:47:33.221Z,9.23
2018-11-06T04:48:33.233Z,9.32
2018-11-06T04:49:33.245Z,9.23
2018-11-06T04:50:33.259Z,9.33
2018-11-06T04:51:33.272Z,9.36
2018-11-06T04:52:33.286Z,9.46
2018-11-06T04:53:33.300Z,9.39
2018-11-06T04:54:33.312Z,9.47
2018-11-06T04:55:33.325Z,9.40
2018-11-06T04:56:33.338Z,9.29
2018-11-06T04:57:33.352Z,9.33
2018-11-06T04:58:33.363Z,9.39
2018-11-06T04:59:33.377Z,9.23
2018-11-06T05:00:33.395Z,9.17
2018-11-06T05:01:33.401Z,9.01
2018-11-06T05:02:33.415Z,8.95
2018-11-06T05:03:33.427Z,9.15
2018-11-06T05:04:33.444Z,9.31
2018-11-06T05:05:33.457Z,9.23
2018-11-06T05:06:33.468Z,9.21
2018-11-06T05:07:33.482Z,9.23
2018-11-06T05:08:33.494Z,9.21
2018-11-06T05:09:33.507Z,9.23
2018-11-06T05:10:33.520Z,9.24
2018-11-06T05:11:33.531Z,9.26
2018-11-06T05:12:33.544Z,9.15
2018-11-06T05:13:33.557Z,9.18
2018-11-06T05:14:33.572Z,9.17
2018-11-06T05:15:33.584Z,9.26
2018-11-06T05:16:33.598Z,9.23
2018-11-06T05:17:33.609Z,9.23
2018-11-06T05:18:33.623Z,9.20
2018-11-06T05:19:33.633Z,9.20
2018-11-06T05:20:33.648Z,9.11
2018-11-06T05:21:33.663Z,9.13
2018-11-06T05:22:33.674Z,9.17
2018-11-06T05:23:33.685Z,9.10
2018-11-06T05:24:33.699Z,9.23
2018-11-06T05:25:33.740Z,9.31
2018-11-06T05:26:33.729Z,9.26
2018-11-06T05:27:33.812Z,9.17
2018-11-06T05:28:33.749Z,9.15
2018-11-06T05:29:33.766Z,9.02
2018-11-06T05:30:33.776Z,9.02
2018-11-06T05:31:33.787Z,8.96
2018-11-06T05:32:33.803Z,8.91
2018-11-06T05:33:33.815Z,8.94
2018-11-06T05:34:33.870Z,8.86
2018-11-06T05:35:33.841Z,8.80
2018-11-06T05:36:33.853Z,8.77
2018-11-06T05:37:33.867Z,8.73
2018-11-06T05:38:33.882Z,8.79
2018-11-06T05:39:34.028Z,8.77
2018-11-06T05:40:33.908Z,8.74
2018-11-06T05:41:33.920Z,8.76
2018-11-06T05:42:33.932Z,8.92
2018-11-06T05:43:33.947Z,8.87
2018-11-06T05:44:33.961Z,8.80
2018-11-06T05:45:34.033Z,8.77
2018-11-06T05:46:33.984Z,8.86
2018-11-06T05:47:33.993Z,8.96
2018-11-06T05:48:34.012Z,8.84
2018-11-06T05:49:34.021Z,8.92
2018-11-06T05:50:34.033Z,8.81
2018-11-06T05:51:34.052Z,8.86
2018-11-06T05:52:34.062Z,8.80
2018-11-06T05:53:34.071Z,8.81
2018-11-06T05:54:34.088Z,8.81
2018-11-06T05:55:34.096Z,8.89
2018-11-06T05:56:34.110Z,8.94
2018-11-06T05:57:34.122Z,8.77
2018-11-06T05:58:34.135Z,8.86
2018-11-06T05:59:34.147Z,8.77
2018-11-06T06:00:34.226Z,8.70
2018-11-06T06:01:34.179Z,8.68
2018-11-06T06:02:34.188Z,8.56
2018-11-06T06:03:34.204Z,8.56
2018-11-06T06:04:34.215Z,8.50
2018-11-06T06:05:34.226Z,8.47
2018-11-06T06:06:34.238Z,8.55
2018-11-06T06:07:34.251Z,8.50
2018-11-06T06:08:34.266Z,8.48
2018-11-06T06:09:34.285Z,8.52
2018-11-06T06:10:34.292Z,8.44
2018-11-06T06:11:34.303Z,8.44
2018-11-06T06:12:34.317Z,8.38
2018-11-06T06:13:34.331Z,8.47
2018-11-06T06:14:34.342Z,8.41
2018-11-06T06:15:34.356Z,8.44
2018-11-06T06:16:34.375Z,8.40
2018-11-06T06:17:34.381Z,8.41
2018-11-06T06:18:34.395Z,8.38
2018-11-06T06:19:34.410Z,8.43
2018-11-06T06:20:34.419Z,8.33
2018-11-06T06:21:34.441Z,8.33
2018-11-06T06:22:34.491Z,8.30
2018-11-06T06:23:34.461Z,8.36
2018-11-06T06:24:34.473Z,8.40
2018-11-06T06:25:34.486Z,8.29
2018-11-06T06:26:34.497Z,8.30
2018-11-06T06:27:34.510Z,8.36
2018-11-06T06:28:34.589Z,8.41
2018-11-06T06:29:34.536Z,8.40
2018-11-06T06:30:34.552Z,8.41
2018-11-06T06:31:34.565Z,8.25
2018-11-06T06:32:34.581Z,8.30
2018-11-06T06:33:34.591Z,8.28
2018-11-06T06:34:34.625Z,8.30
2018-11-06T06:35:34.615Z,8.41
2018-11-06T06:36:34.631Z,8.40
2018-11-06T06:37:34.641Z,8.48
2018-11-06T06:38:34.690Z,8.48
2018-11-06T06:39:34.663Z,8.53
2018-11-06T06:40:34.677Z,8.48
2018-11-06T06:41:34.690Z,8.48
2018-11-06T06:42:34.705Z,8.44
2018-11-06T06:43:34.715Z,8.40
2018-11-06T06:44:34.729Z,8.38
2018-11-06T06:45:34.740Z,8.43
2018-11-06T06:46:34.754Z,8.43
2018-11-06T06:47:34.767Z,8.55
2018-11-06T06:48:34.780Z,8.48
2018-11-06T06:49:34.794Z,8.59
2018-11-06T06:50:34.805Z,8.66
2018-11-06T06:51:34.818Z,8.76
2018-11-06T06:52:34.835Z,8.87
2018-11-06T06:53:34.843Z,8.81
2018-11-06T06:54:35.085Z,8.95
2018-11-06T06:55:34.866Z,8.98
2018-11-06T06:56:34.879Z,9.02
2018-11-06T06:57:34.895Z,9.15
2018-11-06T06:58:34.907Z,9.21
2018-11-06T06:59:34.919Z,9.29
2018-11-06T07:00:34.934Z,9.31
2018-11-06T07:01:34.944Z,9.46
2018-11-06T07:02:35.004Z,9.48
2018-11-06T07:03:34.968Z,9.51
2018-11-06T07:04:34.982Z,9.53
2018-11-06T07:05:34.998Z,9.48
2018-11-06T07:06:35.009Z,9.47
2018-11-06T07:07:35.024Z,9.56
2018-11-06T07:08:35.031Z,9.76
2018-11-06T07:09:35.045Z,9.81
2018-11-06T07:10:35.058Z,9.89
2018-11-06T07:11:35.071Z,9.72
2018-11-06T07:12:35.131Z,9.79
2018-11-06T07:13:35.097Z,9.87
2018-11-06T07:14:35.110Z,9.69
2018-11-06T07:15:35.119Z,9.72
2018-11-06T07:16:35.135Z,9.71
2018-11-06T07:17:35.150Z,9.99
2018-11-06T07:18:35.182Z,9.99
2018-11-06T07:19:35.176Z,9.96
2018-11-06T07:20:35.192Z,10.02
2018-11-06T07:21:35.199Z,9.97
2018-11-06T07:22:35.211Z,9.91
2018-11-06T07:23:35.223Z,10.02
2018-11-06T07:24:35.236Z,10.08
2018-11-06T07:25:35.250Z,10.05
2018-11-06T07:26:35.265Z,10.07
2018-11-06T07:27:35.277Z,10.15
2018-11-06T07:28:35.338Z,10.15
2018-11-06T07:29:35.307Z,10.15
2018-11-06T07:30:35.317Z,10.04
2018-11-06T07:31:35.331Z,10.04
2018-11-06T07:32:35.343Z,10.18
2018-11-06T07:33:35.355Z,10.26
2018-11-06T07:34:35.474Z,10.32
2018-11-06T07:35:35.681Z,10.42
2018-11-06T07:36:35.395Z,10.34
2018-11-06T07:37:35.409Z,10.40
2018-11-06T07:38:35.426Z,10.51
2018-11-06T07:39:35.433Z,10.52
2018-11-06T07:40:35.514Z,10.56
2018-11-06T07:41:35.461Z,10.60
2018-11-06T07:42:35.487Z,10.53
2018-11-06T07:43:35.487Z,10.53
2018-11-06T07:44:35.501Z,10.52
2018-11-06T07:45:35.514Z,10.48
2018-11-06T07:46:35.527Z,10.61
2018-11-06T07:47:35.543Z,10.81
2018-11-06T07:48:35.555Z,10.79
2018-11-06T07:49:35.571Z,10.92
2018-11-06T07:50:35.689Z,11.00
2018-11-06T07:51:35.595Z,11.03
2018-11-06T07:52:35.607Z,11.06
2018-11-06T07:53:35.671Z,10.60
2018-11-06T07:54:35.636Z,10.34
2018-11-06T07:55:35.681Z,10.22
2018-11-06T07:56:35.661Z,10.15
2018-11-06T07:57:35.679Z,10.15
2018-11-06T07:58:35.689Z,10.20
2018-11-06T07:59:35.701Z,10.36
2018-11-06T08:00:35.714Z,10.36
2018-11-06T08:01:35.729Z,10.48
2018-11-06T08:02:35.745Z,10.55
2018-11-06T08:03:35.759Z,10.56
2018-11-06T08:04:35.776Z,10.66
2018-11-06T08:05:35.883Z,10.68
2018-11-06T08:06:35.801Z,10.70
2018-11-06T08:07:35.811Z,10.74
2018-11-06T08:08:35.825Z,10.71
2018-11-06T08:09:35.960Z,10.82
2018-11-06T08:10:35.853Z,10.81
2018-11-06T08:11:35.868Z,10.89
2018-11-06T08:12:35.879Z,10.85
2018-11-06T08:13:35.896Z,10.76
2018-11-06T08:14:35.991Z,10.74
2018-11-06T08:15:35.921Z,10.73
2018-11-06T08:16:35.935Z,10.84
2018-11-06T08:17:35.951Z,10.70
2018-11-06T08:18:35.964Z,10.67
2018-11-06T08:19:35.978Z,10.66
2018-11-06T08:20:36.045Z,10.68
2018-11-06T08:21:36.049Z,10.71
2018-11-06T08:22:36.019Z,10.78
2018-11-06T08:23:36.105Z,10.79
2018-11-06T08:24:36.046Z,10.74
2018-11-06T08:25:36.062Z,10.85
2018-11-06T08:26:36.079Z,10.82
2018-11-06T08:27:36.119Z,10.89
2018-11-06T08:28:36.102Z,10.94
2018-11-06T08:29:36.117Z,11.04
2018-11-06T08:30:36.278Z,11.02
2018-11-06T08:31:36.452Z,11.07
2018-11-06T08:32:36.676Z,11.07
2018-11-06T08:33:36.173Z,10.86
2018-11-06T08:34:36.188Z,10.67
2018-11-06T08:35:36.201Z,10.59
2018-11-06T08:36:36.359Z,10.48
2018-11-06T08:37:36.232Z,10.63
2018-11-06T08:38:36.243Z,10.61
2018-11-06T08:39:36.257Z,10.66
2018-11-06T08:40:36.272Z,10.30
2018-11-06T08:41:36.287Z,10.29
2018-11-06T08:42:36.442Z,10.36
2018-11-06T08:43:36.317Z,10.23
2018-11-06T08:44:36.329Z,10.23
2018-11-06T08:45:36.343Z,10.18
2018-11-06T08:46:36.356Z,10.17
2018-11-06T08:47:36.372Z,10.23
2018-11-06T08:48:36.384Z,10.20
2018-11-06T08:49:36.402Z,10.25
2018-11-06T08:50:36.414Z,10.27
2018-11-06T08:51:36.429Z,10.29
2018-11-06T08:52:36.445Z,10.22
2018-11-06T08:53:36.458Z,10.40
2018-11-06T08:54:36.540Z,10.38
2018-11-06T08:55:36.483Z,10.44
2018-11-06T08:56:36.502Z,10.47
2018-11-06T08:57:36.513Z,10.41
2018-11-06T08:58:36.529Z,10.30
2018-11-06T08:59:36.552Z,10.30
2018-11-06T09:00:36.567Z,10.33
2018-11-06T09:01:36.570Z,10.33
2018-11-06T09:02:36.694Z,10.47
2018-11-06T09:03:36.599Z,10.52
2018-11-06T09:04:36.614Z,10.34
2018-11-06T09:05:36.629Z,10.47
2018-11-06T09:06:36.643Z,10.55
2018-11-06T09:07:36.656Z,10.56
2018-11-06T09:08:36.702Z,10.60
2018-11-06T09:09:36.696Z,10.47
2018-11-06T09:10:36.699Z,10.59
2018-11-06T09:11:36.713Z,10.76
2018-11-06T09:12:36.728Z,10.84
2018-11-06T09:13:36.745Z,10.99
2018-11-06T09:14:36.768Z,11.04
2018-11-06T09:15:36.773Z,11.24
2018-11-06T09:16:36.794Z,11.29
2018-11-06T09:17:36.804Z,11.37
2018-11-06T09:18:36.816Z,11.52
2018-11-06T09:19:36.832Z,11.42
2018-11-06T09:20:36.844Z,11.28
2018-11-06T09:21:36.858Z,11.11
2018-11-06T09:22:36.876Z,11.17
2018-11-06T09:23:36.893Z,11.17
2018-11-06T09:24:36.904Z,11.51
2018-11-06T09:25:36.917Z,11.65
2018-11-06T09:26:36.937Z,11.86
2018-11-06T09:27:36.949Z,12.05
2018-11-06T09:28:36.962Z,12.37
2018-11-06T09:29:36.977Z,12.38
2018-11-06T09:30:36.996Z,12.56
2018-11-06T09:31:37.008Z,12.74
2018-11-06T09:32:37.021Z,12.90
2018-11-06T09:33:37.039Z,13.08
2018-11-06T09:34:37.052Z,13.26
2018-11-06T09:35:37.067Z,13.41
2018-11-06T09:36:37.087Z,13.29
2018-11-06T09:37:37.098Z,13.14
2018-11-06T09:38:37.112Z,13.19
2018-11-06T09:39:37.128Z,13.33
2018-11-06T09:40:37.147Z,13.32
2018-11-06T09:41:37.164Z,13.15
2018-11-06T09:42:37.174Z,13.23
2018-11-06T09:43:37.188Z,12.47
2018-11-06T09:44:37.209Z,12.77
2018-11-06T09:45:37.270Z,12.96
2018-11-06T09:46:37.239Z,13.12
2018-11-06T09:47:37.255Z,12.96
2018-11-06T09:48:37.269Z,13.08
2018-11-06T09:49:37.286Z,13.12
2018-11-06T09:50:37.304Z,13.26
2018-11-06T09:51:37.318Z,13.10
2018-11-06T09:52:37.332Z,13.01
2018-11-06T09:53:37.348Z,12.59
2018-11-06T09:54:37.365Z,12.53
2018-11-06T09:55:37.380Z,12.92
2018-11-06T09:56:37.397Z,13.23
2018-11-06T09:57:37.412Z,13.28
2018-11-06T09:58:37.430Z,13.41
2018-11-06T09:59:37.447Z,13.70
2018-11-06T10:00:37.462Z,13.12
2018-11-06T10:01:37.479Z,12.59
2018-11-06T10:02:37.494Z,12.20
2018-11-06T10:03:37.509Z,12.17
2018-11-06T10:04:37.528Z,12.37
2018-11-06T10:05:37.544Z,12.83
2018-11-06T10:06:37.713Z,13.22
2018-11-06T10:07:37.585Z,13.38
2018-11-06T10:08:37.593Z,13.55
2018-11-06T10:09:37.608Z,13.69
2018-11-06T10:10:37.625Z,13.29
2018-11-06T10:11:37.640Z,13.12
2018-11-06T10:12:37.656Z,13.28
2018-11-06T10:13:37.674Z,13.55
2018-11-06T10:14:37.695Z,13.59
2018-11-06T10:15:37.783Z,13.62
2018-11-06T10:16:37.726Z,13.71
2018-11-06T10:17:37.742Z,13.85
2018-11-06T10:18:37.757Z,13.67
2018-11-06T10:19:37.771Z,13.99
2018-11-06T10:20:37.791Z,14.22
2018-11-06T10:21:37.808Z,14.43
2018-11-06T10:22:37.824Z,14.61
2018-11-06T10:23:37.838Z,14.12
2018-11-06T10:24:37.859Z,14.47
2018-11-06T10:25:37.875Z,14.28
2018-11-06T10:26:37.894Z,14.28
2018-11-06T10:27:37.913Z,14.12
2018-11-06T10:28:37.923Z,13.88
2018-11-06T10:29:37.946Z,13.84
2018-11-06T10:30:37.967Z,13.91
2018-11-06T10:31:37.979Z,14.18
2018-11-06T10:32:37.997Z,14.43
2018-11-06T10:33:38.014Z,14.29
2018-11-06T10:34:38.030Z,14.60
2018-11-06T10:35:38.044Z,14.70
2018-11-06T10:36:38.065Z,14.92
2018-11-06T10:37:38.082Z,14.86
2018-11-06T10:38:38.098Z,13.97
2018-11-06T10:39:38.114Z,14.02
2018-11-06T10:40:38.136Z,13.79
2018-11-06T10:41:38.150Z,13.89
2018-11-06T10:42:38.166Z,14.35
2018-11-06T10:43:38.201Z,14.35
2018-11-06T10:44:38.211Z,14.25
2018-11-06T10:45:38.220Z,14.57
2018-11-06T10:46:38.246Z,14.54
2018-11-06T10:47:38.254Z,14.32
2018-11-06T10:48:38.272Z,14.62
2018-11-06T10:49:38.290Z,14.27
2018-11-06T10:50:38.309Z,14.65
2018-11-06T10:51:38.336Z,14.64
2018-11-06T10:52:38.342Z,14.09
2018-11-06T10:53:38.363Z,13.95
2018-11-06T10:54:38.380Z,14.17
2018-11-06T10:55:38.395Z,14.52
2018-11-06T10:56:38.417Z,14.09
2018-11-06T10:57:38.431Z,14.29
2018-11-06T10:58:38.453Z,14.14
2018-11-06T10:59:38.475Z,13.67
2018-11-06T11:00:38.485Z,13.69
2018-11-06T11:01:38.503Z,13.67
2018-11-06T11:02:38.524Z,13.48
2018-11-06T11:03:38.555Z,13.87
2018-11-06T11:04:38.557Z,13.64
2018-11-06T11:05:38.574Z,14.00
2018-11-06T11:06:38.592Z,14.65
2018-11-06T11:07:38.611Z,14.27
2018-11-06T11:08:38.628Z,14.37
2018-11-06T11:09:38.646Z,14.45
2018-11-06T11:10:38.666Z,14.96
2018-11-06T11:11:38.681Z,15.09
2018-11-06T11:12:38.920Z,15.03
2018-11-06T11:13:38.737Z,15.19
2018-11-06T11:14:38.734Z,15.57
2018-11-06T11:15:38.750Z,15.92
2018-11-06T11:16:38.769Z,15.84
2018-11-06T11:17:38.788Z,15.43
2018-11-06T11:18:38.808Z,14.57
2018-11-06T11:19:38.824Z,14.07
2018-11-06T11:20:38.843Z,13.92
2018-11-06T11:21:38.862Z,14.35
2018-11-06T11:22:38.878Z,14.88
2018-11-06T11:23:38.903Z,15.02
2018-11-06T11:24:38.916Z,15.34
2018-11-06T11:25:38.960Z,14.77
2018-11-06T11:26:38.964Z,14.81
2018-11-06T11:27:38.974Z,14.60
2018-11-06T11:28:38.988Z,13.69
2018-11-06T11:29:39.008Z,13.92
2018-11-06T11:30:39.037Z,13.82
2018-11-06T11:31:39.041Z,13.82
2018-11-06T11:32:39.061Z,14.10
2018-11-06T11:33:39.086Z,13.89
2018-11-06T11:34:39.096Z,14.04
2018-11-06T11:35:39.121Z,14.14
2018-11-06T11:36:39.135Z,14.10
2018-11-06T11:37:39.189Z,14.28
2018-11-06T11:38:39.169Z,14.22
2018-11-06T11:39:39.185Z,14.54
2018-11-06T11:40:39.206Z,14.14
2018-11-06T11:41:39.224Z,14.52
2018-11-06T11:42:39.243Z,14.58
2018-11-06T11:43:39.261Z,14.73
2018-11-06T11:44:39.278Z,14.15
2018-11-06T11:45:39.334Z,14.21
2018-11-06T11:46:39.314Z,14.57
2018-11-06T11:47:39.334Z,14.33
2018-11-06T11:48:39.348Z,14.35
2018-11-06T11:49:39.368Z,14.45
2018-11-06T11:50:39.389Z,14.65
2018-11-06T11:51:39.412Z,14.43
2018-11-06T11:52:39.427Z,14.45
2018-11-06T11:53:39.443Z,14.58
2018-11-06T11:54:39.458Z,14.60
2018-11-06T11:55:39.483Z,14.96
2018-11-06T11:56:39.495Z,14.54
2018-11-06T11:57:39.513Z,14.03
2018-11-06T11:58:39.537Z,13.59
2018-11-06T11:59:39.548Z,14.28
2018-11-06T12:00:39.568Z,14.27
2018-11-06T12:01:39.587Z,14.64
2018-11-06T12:02:39.605Z,15.20
2018-11-06T12:03:39.621Z,15.83
2018-11-06T12:04:39.637Z,16.42
2018-11-06T12:05:39.658Z,16.76
2018-11-06T12:06:39.675Z,16.38
2018-11-06T12:07:39.693Z,15.67
2018-11-06T12:08:39.716Z,15.72
2018-11-06T12:09:39.734Z,15.71
2018-11-06T12:10:39.750Z,14.99
2018-11-06T12:11:39.768Z,14.94
2018-11-06T12:12:39.786Z,15.19
2018-11-06T12:13:39.804Z,15.29
2018-11-06T12:14:39.824Z,14.94
2018-11-06T12:15:39.842Z,14.92
2018-11-06T12:16:39.861Z,14.57
2018-11-06T12:17:39.880Z,14.73
2018-11-06T12:18:39.903Z,15.10
2018-11-06T12:19:39.916Z,15.60
2018-11-06T12:20:39.938Z,16.28
2018-11-06T12:21:39.956Z,16.91
2018-11-06T12:22:39.977Z,17.23
2018-11-06T12:23:39.993Z,17.56
2018-11-06T12:24:40.126Z,17.78
2018-11-06T12:25:40.284Z,18.08
2018-11-06T12:26:40.050Z,18.07
2018-11-06T12:27:40.068Z,17.33
2018-11-06T12:28:40.088Z,17.31
2018-11-06T12:29:40.106Z,16.30
2018-11-06T12:30:40.127Z,15.90
2018-11-06T12:31:40.145Z,15.07
2018-11-06T12:32:40.273Z,15.38
2018-11-06T12:33:40.187Z,15.67
2018-11-06T12:34:40.206Z,15.90
2018-11-06T12:35:40.225Z,16.15
2018-11-06T12:36:40.300Z,16.45
2018-11-06T12:37:40.266Z,16.88
2018-11-06T12:38:40.287Z,16.68
2018-11-06T12:39:40.301Z,16.11
2018-11-06T12:40:40.322Z,16.45
2018-11-06T12:41:40.343Z,16.48
2018-11-06T12:42:40.360Z,16.35
2018-11-06T12:43:40.455Z,16.38
2018-11-06T12:44:40.403Z,16.73
2018-11-06T12:45:40.420Z,16.96
2018-11-06T12:46:40.445Z,16.57
2018-11-06T12:47:40.460Z,16.35
2018-11-06T12:48:40.484Z,17.03
2018-11-06T12:49:40.501Z,17.52
2018-11-06T12:50:40.524Z,17.11
2018-11-06T12:51:40.545Z,16.09
2018-11-06T12:52:40.563Z,15.86
2018-11-06T12:53:40.581Z,16.52
2018-11-06T12:54:40.601Z,17.22
2018-11-06T12:55:40.622Z,17.51
2018-11-06T12:56:40.643Z,17.96
2018-11-06T12:57:40.672Z,18.08
2018-11-06T12:58:40.684Z,18.37
2018-11-06T12:59:40.804Z,18.85
2018-11-06T13:00:40.726Z,19.26
2018-11-06T13:01:40.745Z,18.15
2018-11-06T13:02:40.764Z,17.55
2018-11-06T13:03:40.783Z,17.33
2018-11-06T13:04:40.806Z,16.86
2018-11-06T13:05:40.828Z,16.64
2018-11-06T13:06:40.847Z,16.20